sensor_id;sensor_type;location;lat;lon;timestamp;P1;durP1;ratioP1;P2;durP2;ratioP2
74465;SDS011;62916;50.044;15.938;2023-04-03T00:01:41;1.10;;;0.80;;
74465;SDS011;62916;50.044;15.938;2023-04-03T00:04:12;1.70;;;0.80;;
74465;SDS011;62916;50.044;15.938;2023-04-03T00:06:43;1.80;;;0.70;;
74465;SDS011;62916;50.044;15.938;2023-04-03T00:09:14;0.70;;;0.70;;
74465;SDS011;62916;50.044;15.938;2023-04-03T00:11:45;0.80;;;0.60;;
74465;SDS011;62916;50.044;15.938;2023-04-03T00:14:16;1.20;;;0.90;;
74465;SDS011;62916;50.044;15.938;2023-04-03T00:16:46;1.30;;;0.90;;
74465;SDS011;62916;50.044;15.938;2023-04-03T00:19:17;1.70;;;1.40;;
74465;SDS011;62916;50.044;15.938;2023-04-03T00:21:49;1.40;;;0.90;;
74465;SDS011;62916;50.044;15.938;2023-04-03T00:24:21;1.40;;;0.90;;
74465;SDS011;62916;50.044;15.938;2023-04-03T00:26:52;0.90;;;0.80;;
74465;SDS011;62916;50.044;15.938;2023-04-03T00:29:23;2.10;;;1.00;;
74465;SDS011;62916;50.044;15.938;2023-04-03T00:31:54;1.10;;;0.70;;
74465;SDS011;62916;50.044;15.938;2023-04-03T00:34:24;1.50;;;0.80;;
74465;SDS011;62916;50.044;15.938;2023-04-03T00:36:55;0.90;;;0.80;;
74465;SDS011;62916;50.044;15.938;2023-04-03T00:39:26;0.90;;;0.70;;
74465;SDS011;62916;50.044;15.938;2023-04-03T00:41:57;1.80;;;1.10;;
74465;SDS011;62916;50.044;15.938;2023-04-03T00:47:30;0.90;;;0.80;;
74465;SDS011;62916;50.044;15.938;2023-04-03T00:50:02;2.70;;;1.20;;
74465;SDS011;62916;50.044;15.938;2023-04-03T00:52:34;1.10;;;0.80;;
74465;SDS011;62916;50.044;15.938;2023-04-03T00:55:07;1.40;;;1.30;;
74465;SDS011;62916;50.044;15.938;2023-04-03T00:57:39;1.40;;;1.30;;
74465;SDS011;62916;50.044;15.938;2023-04-03T01:00:12;0.80;;;0.80;;
74465;SDS011;62916;50.044;15.938;2023-04-03T01:02:47;1.80;;;1.10;;
74465;SDS011;62916;50.044;15.938;2023-04-03T01:05:19;1.50;;;0.70;;
74465;SDS011;62916;50.044;15.938;2023-04-03T01:07:51;1.10;;;0.90;;
74465;SDS011;62916;50.044;15.938;2023-04-03T01:10:22;1.60;;;0.90;;
74465;SDS011;62916;50.044;15.938;2023-04-03T01:12:53;1.30;;;1.20;;
74465;SDS011;62916;50.044;15.938;2023-04-03T01:15:25;2.20;;;1.10;;
74465;SDS011;62916;50.044;15.938;2023-04-03T01:18:00;1.00;;;0.90;;
74465;SDS011;62916;50.044;15.938;2023-04-03T01:20:45;0.80;;;0.70;;
74465;SDS011;62916;50.044;15.938;2023-04-03T01:23:39;1.20;;;0.80;;
74465;SDS011;62916;50.044;15.938;2023-04-03T01:28:44;1.30;;;0.80;;
74465;SDS011;62916;50.044;15.938;2023-04-03T01:31:18;1.50;;;0.80;;
74465;SDS011;62916;50.044;15.938;2023-04-03T01:33:53;1.30;;;0.70;;
74465;SDS011;62916;50.044;15.938;2023-04-03T01:36:25;0.80;;;0.70;;
74465;SDS011;62916;50.044;15.938;2023-04-03T01:38:57;0.90;;;0.80;;
74465;SDS011;62916;50.044;15.938;2023-04-03T01:41:29;1.60;;;0.90;;
74465;SDS011;62916;50.044;15.938;2023-04-03T01:44:00;1.00;;;0.70;;
74465;SDS011;62916;50.044;15.938;2023-04-03T01:46:32;1.20;;;1.10;;
74465;SDS011;62916;50.044;15.938;2023-04-03T01:49:03;1.00;;;0.80;;
74465;SDS011;62916;50.044;15.938;2023-04-03T01:51:34;0.80;;;0.70;;
74465;SDS011;62916;50.044;15.938;2023-04-03T01:54:05;1.00;;;0.90;;
74465;SDS011;62916;50.044;15.938;2023-04-03T01:56:36;0.80;;;0.80;;
74465;SDS011;62916;50.044;15.938;2023-04-03T01:59:06;1.50;;;1.00;;
74465;SDS011;62916;50.044;15.938;2023-04-03T02:01:38;2.20;;;0.80;;
74465;SDS011;62916;50.044;15.938;2023-04-03T02:04:09;1.50;;;1.20;;
74465;SDS011;62916;50.044;15.938;2023-04-03T02:06:39;1.10;;;1.00;;
74465;SDS011;62916;50.044;15.938;2023-04-03T02:09:10;1.00;;;0.80;;
74465;SDS011;62916;50.044;15.938;2023-04-03T02:11:41;1.50;;;1.00;;
74465;SDS011;62916;50.044;15.938;2023-04-03T02:14:11;0.90;;;0.80;;
74465;SDS011;62916;50.044;15.938;2023-04-03T02:16:42;1.30;;;0.80;;
74465;SDS011;62916;50.044;15.938;2023-04-03T02:19:13;2.40;;;0.70;;
74465;SDS011;62916;50.044;15.938;2023-04-03T02:21:44;1.00;;;0.90;;
74465;SDS011;62916;50.044;15.938;2023-04-03T02:24:15;1.30;;;1.00;;
74465;SDS011;62916;50.044;15.938;2023-04-03T02:26:45;1.30;;;0.80;;
74465;SDS011;62916;50.044;15.938;2023-04-03T02:29:16;0.90;;;0.70;;
74465;SDS011;62916;50.044;15.938;2023-04-03T02:31:47;0.80;;;0.80;;
74465;SDS011;62916;50.044;15.938;2023-04-03T02:34:18;1.00;;;0.80;;
74465;SDS011;62916;50.044;15.938;2023-04-03T02:36:49;1.30;;;0.90;;
74465;SDS011;62916;50.044;15.938;2023-04-03T02:39:19;1.00;;;0.80;;
74465;SDS011;62916;50.044;15.938;2023-04-03T02:41:50;1.40;;;0.90;;
74465;SDS011;62916;50.044;15.938;2023-04-03T02:44:21;1.00;;;0.70;;
74465;SDS011;62916;50.044;15.938;2023-04-03T02:46:52;0.80;;;0.80;;
74465;SDS011;62916;50.044;15.938;2023-04-03T02:49:23;1.10;;;1.10;;
74465;SDS011;62916;50.044;15.938;2023-04-03T02:51:53;1.00;;;0.80;;
74465;SDS011;62916;50.044;15.938;2023-04-03T02:54:24;0.60;;;0.60;;
74465;SDS011;62916;50.044;15.938;2023-04-03T02:56:58;0.70;;;0.70;;
74465;SDS011;62916;50.044;15.938;2023-04-03T02:59:29;0.80;;;0.60;;
74465;SDS011;62916;50.044;15.938;2023-04-03T03:02:00;1.40;;;0.90;;
74465;SDS011;62916;50.044;15.938;2023-04-03T03:04:30;1.00;;;0.80;;
74465;SDS011;62916;50.044;15.938;2023-04-03T03:07:01;0.80;;;0.70;;
74465;SDS011;62916;50.044;15.938;2023-04-03T03:09:33;1.50;;;0.70;;
74465;SDS011;62916;50.044;15.938;2023-04-03T03:12:04;1.20;;;0.80;;
74465;SDS011;62916;50.044;15.938;2023-04-03T03:14:35;1.50;;;1.10;;
74465;SDS011;62916;50.044;15.938;2023-04-03T03:17:06;0.90;;;0.60;;
74465;SDS011;62916;50.044;15.938;2023-04-03T03:19:37;1.10;;;0.90;;
74465;SDS011;62916;50.044;15.938;2023-04-03T03:22:07;1.50;;;0.90;;
74465;SDS011;62916;50.044;15.938;2023-04-03T03:24:38;0.90;;;0.70;;
74465;SDS011;62916;50.044;15.938;2023-04-03T03:27:10;1.40;;;1.00;;
74465;SDS011;62916;50.044;15.938;2023-04-03T03:29:41;1.40;;;0.70;;
74465;SDS011;62916;50.044;15.938;2023-04-03T03:32:12;1.50;;;0.80;;
74465;SDS011;62916;50.044;15.938;2023-04-03T03:34:43;1.10;;;0.90;;
74465;SDS011;62916;50.044;15.938;2023-04-03T03:37:14;1.60;;;0.70;;
74465;SDS011;62916;50.044;15.938;2023-04-03T03:39:44;0.90;;;0.80;;
74465;SDS011;62916;50.044;15.938;2023-04-03T03:42:15;2.00;;;1.10;;
74465;SDS011;62916;50.044;15.938;2023-04-03T03:44:46;2.40;;;1.00;;
74465;SDS011;62916;50.044;15.938;2023-04-03T03:47:17;1.20;;;1.00;;
74465;SDS011;62916;50.044;15.938;2023-04-03T03:49:47;1.40;;;0.80;;
74465;SDS011;62916;50.044;15.938;2023-04-03T03:52:18;1.70;;;0.90;;
74465;SDS011;62916;50.044;15.938;2023-04-03T03:54:49;2.10;;;1.30;;
74465;SDS011;62916;50.044;15.938;2023-04-03T03:57:19;2.30;;;0.90;;
74465;SDS011;62916;50.044;15.938;2023-04-03T03:59:50;2.00;;;1.10;;
74465;SDS011;62916;50.044;15.938;2023-04-03T04:02:21;1.30;;;1.00;;
74465;SDS011;62916;50.044;15.938;2023-04-03T04:04:52;1.10;;;0.70;;
74465;SDS011;62916;50.044;15.938;2023-04-03T04:07:23;2.50;;;0.90;;
74465;SDS011;62916;50.044;15.938;2023-04-03T04:09:55;2.70;;;1.00;;
74465;SDS011;62916;50.044;15.938;2023-04-03T04:12:27;4.90;;;1.30;;
74465;SDS011;62916;50.044;15.938;2023-04-03T04:14:57;8.00;;;1.90;;
74465;SDS011;62916;50.044;15.938;2023-04-03T04:17:29;7.20;;;1.10;;
74465;SDS011;62916;50.044;15.938;2023-04-03T04:19:59;7.80;;;1.40;;
74465;SDS011;62916;50.044;15.938;2023-04-03T04:22:30;5.50;;;1.20;;
74465;SDS011;62916;50.044;15.938;2023-04-03T04:25:01;4.60;;;1.00;;
74465;SDS011;62916;50.044;15.938;2023-04-03T04:27:33;6.60;;;1.30;;
74465;SDS011;62916;50.044;15.938;2023-04-03T04:30:05;4.40;;;1.30;;
74465;SDS011;62916;50.044;15.938;2023-04-03T04:32:37;3.00;;;1.00;;
74465;SDS011;62916;50.044;15.938;2023-04-03T04:35:09;8.40;;;1.20;;
74465;SDS011;62916;50.044;15.938;2023-04-03T04:37:43;10.50;;;1.30;;
74465;SDS011;62916;50.044;15.938;2023-04-03T04:40:14;3.60;;;1.20;;
74465;SDS011;62916;50.044;15.938;2023-04-03T04:42:45;4.00;;;1.10;;
74465;SDS011;62916;50.044;15.938;2023-04-03T04:45:16;5.10;;;0.90;;
74465;SDS011;62916;50.044;15.938;2023-04-03T04:47:47;3.30;;;1.10;;
74465;SDS011;62916;50.044;15.938;2023-04-03T04:50:20;5.70;;;1.10;;
74465;SDS011;62916;50.044;15.938;2023-04-03T04:52:51;2.70;;;1.10;;
74465;SDS011;62916;50.044;15.938;2023-04-03T04:55:21;2.80;;;1.10;;
74465;SDS011;62916;50.044;15.938;2023-04-03T04:57:52;3.50;;;1.00;;
74465;SDS011;62916;50.044;15.938;2023-04-03T05:00:23;4.90;;;1.30;;
74465;SDS011;62916;50.044;15.938;2023-04-03T05:02:54;3.90;;;1.00;;
74465;SDS011;62916;50.044;15.938;2023-04-03T05:05:25;3.00;;;0.90;;
74465;SDS011;62916;50.044;15.938;2023-04-03T05:07:56;2.90;;;1.10;;
74465;SDS011;62916;50.044;15.938;2023-04-03T05:10:27;3.50;;;1.10;;
74465;SDS011;62916;50.044;15.938;2023-04-03T05:12:59;3.50;;;1.10;;
74465;SDS011;62916;50.044;15.938;2023-04-03T05:15:29;1.40;;;0.90;;
74465;SDS011;62916;50.044;15.938;2023-04-03T05:18:00;4.00;;;1.00;;
74465;SDS011;62916;50.044;15.938;2023-04-03T05:20:31;2.70;;;1.10;;
74465;SDS011;62916;50.044;15.938;2023-04-03T05:23:02;2.20;;;0.80;;
74465;SDS011;62916;50.044;15.938;2023-04-03T05:25:33;2.20;;;0.80;;
74465;SDS011;62916;50.044;15.938;2023-04-03T05:28:06;4.60;;;0.90;;
74465;SDS011;62916;50.044;15.938;2023-04-03T05:30:37;3.40;;;0.90;;
74465;SDS011;62916;50.044;15.938;2023-04-03T05:33:08;4.90;;;1.20;;
74465;SDS011;62916;50.044;15.938;2023-04-03T05:35:39;4.50;;;1.10;;
74465;SDS011;62916;50.044;15.938;2023-04-03T05:38:12;3.20;;;1.10;;
74465;SDS011;62916;50.044;15.938;2023-04-03T05:40:43;1.60;;;0.80;;
74465;SDS011;62916;50.044;15.938;2023-04-03T05:43:14;1.70;;;0.90;;
74465;SDS011;62916;50.044;15.938;2023-04-03T05:45:46;1.50;;;1.00;;
74465;SDS011;62916;50.044;15.938;2023-04-03T05:48:17;2.90;;;1.10;;
74465;SDS011;62916;50.044;15.938;2023-04-03T05:50:48;2.90;;;0.90;;
74465;SDS011;62916;50.044;15.938;2023-04-03T05:53:24;2.20;;;0.70;;
74465;SDS011;62916;50.044;15.938;2023-04-03T05:55:58;4.00;;;0.80;;
74465;SDS011;62916;50.044;15.938;2023-04-03T05:58:29;1.10;;;1.00;;
74465;SDS011;62916;50.044;15.938;2023-04-03T06:00:59;1.40;;;0.80;;
74465;SDS011;62916;50.044;15.938;2023-04-03T06:03:30;2.50;;;0.90;;
74465;SDS011;62916;50.044;15.938;2023-04-03T06:06:04;2.70;;;1.00;;
74465;SDS011;62916;50.044;15.938;2023-04-03T06:08:35;2.60;;;0.90;;
74465;SDS011;62916;50.044;15.938;2023-04-03T06:11:07;2.40;;;0.60;;
74465;SDS011;62916;50.044;15.938;2023-04-03T06:13:38;2.60;;;1.00;;
74465;SDS011;62916;50.044;15.938;2023-04-03T06:16:09;2.50;;;0.70;;
74465;SDS011;62916;50.044;15.938;2023-04-03T06:18:43;4.50;;;0.90;;
74465;SDS011;62916;50.044;15.938;2023-04-03T06:21:13;1.10;;;0.80;;
74465;SDS011;62916;50.044;15.938;2023-04-03T06:23:44;1.90;;;0.70;;
74465;SDS011;62916;50.044;15.938;2023-04-03T06:26:15;2.40;;;1.00;;
74465;SDS011;62916;50.044;15.938;2023-04-03T06:28:46;4.20;;;0.80;;
74465;SDS011;62916;50.044;15.938;2023-04-03T06:31:17;2.00;;;0.80;;
74465;SDS011;62916;50.044;15.938;2023-04-03T06:33:47;1.60;;;0.80;;
74465;SDS011;62916;50.044;15.938;2023-04-03T06:36:19;1.40;;;0.60;;
74465;SDS011;62916;50.044;15.938;2023-04-03T06:38:50;1.00;;;0.70;;
74465;SDS011;62916;50.044;15.938;2023-04-03T06:41:21;1.40;;;0.60;;
74465;SDS011;62916;50.044;15.938;2023-04-03T06:43:51;1.60;;;0.70;;
74465;SDS011;62916;50.044;15.938;2023-04-03T06:46:25;1.10;;;0.70;;
74465;SDS011;62916;50.044;15.938;2023-04-03T06:48:58;1.20;;;0.60;;
74465;SDS011;62916;50.044;15.938;2023-04-03T06:51:29;1.60;;;0.60;;
74465;SDS011;62916;50.044;15.938;2023-04-03T06:54:00;2.00;;;1.30;;
74465;SDS011;62916;50.044;15.938;2023-04-03T06:56:32;0.80;;;0.50;;
74465;SDS011;62916;50.044;15.938;2023-04-03T06:59:03;1.50;;;0.70;;
74465;SDS011;62916;50.044;15.938;2023-04-03T07:01:34;2.00;;;0.80;;
74465;SDS011;62916;50.044;15.938;2023-04-03T07:04:05;0.90;;;0.70;;
74465;SDS011;62916;50.044;15.938;2023-04-03T07:06:36;1.80;;;0.70;;
74465;SDS011;62916;50.044;15.938;2023-04-03T07:09:07;1.20;;;0.60;;
74465;SDS011;62916;50.044;15.938;2023-04-03T07:11:38;1.30;;;0.80;;
74465;SDS011;62916;50.044;15.938;2023-04-03T07:14:09;2.10;;;0.90;;
74465;SDS011;62916;50.044;15.938;2023-04-03T07:16:40;1.00;;;0.50;;
74465;SDS011;62916;50.044;15.938;2023-04-03T07:19:11;0.70;;;0.50;;
74465;SDS011;62916;50.044;15.938;2023-04-03T07:21:42;1.80;;;0.80;;
74465;SDS011;62916;50.044;15.938;2023-04-03T07:24:13;1.20;;;0.60;;
74465;SDS011;62916;50.044;15.938;2023-04-03T07:26:44;2.00;;;0.60;;
74465;SDS011;62916;50.044;15.938;2023-04-03T07:29:17;1.80;;;0.60;;
74465;SDS011;62916;50.044;15.938;2023-04-03T07:31:49;1.50;;;0.70;;
74465;SDS011;62916;50.044;15.938;2023-04-03T07:34:20;1.80;;;0.80;;
74465;SDS011;62916;50.044;15.938;2023-04-03T07:36:51;1.80;;;0.90;;
74465;SDS011;62916;50.044;15.938;2023-04-03T07:39:22;2.10;;;0.90;;
74465;SDS011;62916;50.044;15.938;2023-04-03T07:41:53;1.60;;;0.90;;
74465;SDS011;62916;50.044;15.938;2023-04-03T07:44:25;3.00;;;1.40;;
74465;SDS011;62916;50.044;15.938;2023-04-03T07:46:55;1.80;;;0.90;;
74465;SDS011;62916;50.044;15.938;2023-04-03T07:49:27;1.60;;;0.70;;
74465;SDS011;62916;50.044;15.938;2023-04-03T07:52:00;1.60;;;1.10;;
74465;SDS011;62916;50.044;15.938;2023-04-03T07:54:31;2.60;;;1.10;;
74465;SDS011;62916;50.044;15.938;2023-04-03T07:57:02;2.20;;;0.90;;
74465;SDS011;62916;50.044;15.938;2023-04-03T07:59:34;3.30;;;1.40;;
74465;SDS011;62916;50.044;15.938;2023-04-03T08:02:05;2.00;;;0.80;;
74465;SDS011;62916;50.044;15.938;2023-04-03T08:04:36;3.50;;;1.60;;
74465;SDS011;62916;50.044;15.938;2023-04-03T08:07:07;1.90;;;1.00;;
74465;SDS011;62916;50.044;15.938;2023-04-03T08:09:38;2.20;;;1.20;;
74465;SDS011;62916;50.044;15.938;2023-04-03T08:12:09;1.60;;;1.10;;
74465;SDS011;62916;50.044;15.938;2023-04-03T08:14:40;2.50;;;1.30;;
74465;SDS011;62916;50.044;15.938;2023-04-03T08:17:11;2.30;;;1.10;;
74465;SDS011;62916;50.044;15.938;2023-04-03T08:19:41;2.10;;;1.10;;
74465;SDS011;62916;50.044;15.938;2023-04-03T08:22:12;1.90;;;1.10;;
74465;SDS011;62916;50.044;15.938;2023-04-03T08:24:44;3.30;;;1.00;;
74465;SDS011;62916;50.044;15.938;2023-04-03T08:27:26;3.10;;;0.80;;
74465;SDS011;62916;50.044;15.938;2023-04-03T08:29:56;2.50;;;1.00;;
74465;SDS011;62916;50.044;15.938;2023-04-03T08:32:27;1.30;;;0.90;;
74465;SDS011;62916;50.044;15.938;2023-04-03T08:34:58;1.70;;;0.80;;
74465;SDS011;62916;50.044;15.938;2023-04-03T08:37:29;2.50;;;1.00;;
74465;SDS011;62916;50.044;15.938;2023-04-03T08:39:59;2.30;;;1.00;;
74465;SDS011;62916;50.044;15.938;2023-04-03T08:42:36;1.90;;;0.80;;
74465;SDS011;62916;50.044;15.938;2023-04-03T08:45:15;1.40;;;0.90;;
74465;SDS011;62916;50.044;15.938;2023-04-03T08:47:52;2.40;;;0.90;;
74465;SDS011;62916;50.044;15.938;2023-04-03T08:50:30;1.40;;;1.10;;
74465;SDS011;62916;50.044;15.938;2023-04-03T08:53:08;2.40;;;1.10;;
74465;SDS011;62916;50.044;15.938;2023-04-03T08:55:44;1.50;;;1.00;;
74465;SDS011;62916;50.044;15.938;2023-04-03T08:58:18;2.10;;;1.10;;
74465;SDS011;62916;50.044;15.938;2023-04-03T09:00:51;2.70;;;1.00;;
74465;SDS011;62916;50.044;15.938;2023-04-03T09:03:28;3.40;;;1.20;;
74465;SDS011;62916;50.044;15.938;2023-04-03T09:06:02;3.10;;;1.60;;
74465;SDS011;62916;50.044;15.938;2023-04-03T09:08:37;2.10;;;1.10;;
74465;SDS011;62916;50.044;15.938;2023-04-03T09:11:16;1.80;;;1.00;;
74465;SDS011;62916;50.044;15.938;2023-04-03T09:13:57;1.80;;;1.70;;
74465;SDS011;62916;50.044;15.938;2023-04-03T09:16:35;2.40;;;1.20;;
74465;SDS011;62916;50.044;15.938;2023-04-03T09:19:13;1.80;;;0.80;;
74465;SDS011;62916;50.044;15.938;2023-04-03T09:21:49;2.10;;;0.80;;
74465;SDS011;62916;50.044;15.938;2023-04-03T09:24:20;2.30;;;1.10;;
74465;SDS011;62916;50.044;15.938;2023-04-03T09:26:54;1.50;;;1.00;;
74465;SDS011;62916;50.044;15.938;2023-04-03T09:29:28;1.40;;;1.00;;
74465;SDS011;62916;50.044;15.938;2023-04-03T09:32:00;1.50;;;0.90;;
74465;SDS011;62916;50.044;15.938;2023-04-03T09:34:38;2.60;;;1.10;;
74465;SDS011;62916;50.044;15.938;2023-04-03T09:37:12;1.90;;;1.10;;
74465;SDS011;62916;50.044;15.938;2023-04-03T09:40:12;2.20;;;0.90;;
74465;SDS011;62916;50.044;15.938;2023-04-03T09:43:04;1.00;;;0.70;;
74465;SDS011;62916;50.044;15.938;2023-04-03T09:45:50;2.10;;;1.20;;
74465;SDS011;62916;50.044;15.938;2023-04-03T09:48:23;2.00;;;1.60;;
74465;SDS011;62916;50.044;15.938;2023-04-03T09:50:57;1.90;;;1.00;;
74465;SDS011;62916;50.044;15.938;2023-04-03T09:53:32;1.70;;;1.10;;
74465;SDS011;62916;50.044;15.938;2023-04-03T09:58:47;1.70;;;1.60;;
74465;SDS011;62916;50.044;15.938;2023-04-03T10:01:28;2.30;;;1.10;;
74465;SDS011;62916;50.044;15.938;2023-04-03T10:04:04;2.70;;;1.30;;
74465;SDS011;62916;50.044;15.938;2023-04-03T10:06:38;1.90;;;1.00;;
74465;SDS011;62916;50.044;15.938;2023-04-03T10:09:17;1.70;;;0.90;;
74465;SDS011;62916;50.044;15.938;2023-04-03T10:12:03;2.10;;;0.90;;
74465;SDS011;62916;50.044;15.938;2023-04-03T10:14:38;2.80;;;1.40;;
74465;SDS011;62916;50.044;15.938;2023-04-03T10:17:23;2.20;;;1.20;;
74465;SDS011;62916;50.044;15.938;2023-04-03T10:20:04;1.60;;;1.00;;
74465;SDS011;62916;50.044;15.938;2023-04-03T10:22:45;1.90;;;0.90;;
74465;SDS011;62916;50.044;15.938;2023-04-03T10:25:26;2.60;;;1.00;;
74465;SDS011;62916;50.044;15.938;2023-04-03T10:28:04;2.50;;;1.20;;
74465;SDS011;62916;50.044;15.938;2023-04-03T10:30:42;2.20;;;1.30;;
74465;SDS011;62916;50.044;15.938;2023-04-03T10:33:26;2.10;;;0.80;;
74465;SDS011;62916;50.044;15.938;2023-04-03T10:36:10;1.40;;;1.00;;
74465;SDS011;62916;50.044;15.938;2023-04-03T10:41:25;2.10;;;1.00;;
74465;SDS011;62916;50.044;15.938;2023-04-03T10:44:11;2.80;;;1.10;;
74465;SDS011;62916;50.044;15.938;2023-04-03T10:46:49;2.30;;;1.10;;
74465;SDS011;62916;50.044;15.938;2023-04-03T10:49:30;1.60;;;0.90;;
74465;SDS011;62916;50.044;15.938;2023-04-03T10:52:27;2.10;;;0.90;;
74465;SDS011;62916;50.044;15.938;2023-04-03T10:55:10;1.90;;;0.80;;
74465;SDS011;62916;50.044;15.938;2023-04-03T10:57:54;2.50;;;1.20;;
74465;SDS011;62916;50.044;15.938;2023-04-03T11:00:29;1.40;;;1.20;;
74465;SDS011;62916;50.044;15.938;2023-04-03T11:03:05;1.10;;;1.00;;
74465;SDS011;62916;50.044;15.938;2023-04-03T11:05:42;1.80;;;1.00;;
74465;SDS011;62916;50.044;15.938;2023-04-03T11:08:19;2.40;;;1.00;;
74465;SDS011;62916;50.044;15.938;2023-04-03T11:10:59;1.60;;;1.10;;
74465;SDS011;62916;50.044;15.938;2023-04-03T11:13:35;2.20;;;1.10;;
74465;SDS011;62916;50.044;15.938;2023-04-03T11:16:10;1.80;;;0.90;;
74465;SDS011;62916;50.044;15.938;2023-04-03T11:18:48;2.90;;;1.10;;
74465;SDS011;62916;50.044;15.938;2023-04-03T11:21:22;1.30;;;0.80;;
74465;SDS011;62916;50.044;15.938;2023-04-03T11:24:01;1.70;;;0.90;;
74465;SDS011;62916;50.044;15.938;2023-04-03T11:26:37;1.20;;;0.80;;
74465;SDS011;62916;50.044;15.938;2023-04-03T11:29:10;1.60;;;0.90;;
74465;SDS011;62916;50.044;15.938;2023-04-03T11:32:05;1.60;;;1.20;;
74465;SDS011;62916;50.044;15.938;2023-04-03T11:34:45;2.10;;;0.80;;
74465;SDS011;62916;50.044;15.938;2023-04-03T11:37:20;2.50;;;1.00;;
74465;SDS011;62916;50.044;15.938;2023-04-03T11:39:57;1.40;;;0.70;;
74465;SDS011;62916;50.044;15.938;2023-04-03T11:42:32;1.80;;;1.00;;
74465;SDS011;62916;50.044;15.938;2023-04-03T11:45:22;1.90;;;1.00;;
74465;SDS011;62916;50.044;15.938;2023-04-03T11:47:59;2.30;;;1.00;;
74465;SDS011;62916;50.044;15.938;2023-04-03T11:50:47;1.50;;;0.90;;
74465;SDS011;62916;50.044;15.938;2023-04-03T11:53:35;2.60;;;0.90;;
74465;SDS011;62916;50.044;15.938;2023-04-03T11:59:21;1.90;;;0.80;;
74465;SDS011;62916;50.044;15.938;2023-04-03T12:01:54;2.10;;;1.00;;
74465;SDS011;62916;50.044;15.938;2023-04-03T12:04:26;2.20;;;0.90;;
74465;SDS011;62916;50.044;15.938;2023-04-03T12:07:08;1.70;;;1.00;;
74465;SDS011;62916;50.044;15.938;2023-04-03T12:12:59;1.60;;;0.70;;
74465;SDS011;62916;50.044;15.938;2023-04-03T12:15:54;1.80;;;1.10;;
74465;SDS011;62916;50.044;15.938;2023-04-03T12:24:35;1.40;;;0.70;;
74465;SDS011;62916;50.044;15.938;2023-04-03T12:27:16;1.70;;;1.00;;
74465;SDS011;62916;50.044;15.938;2023-04-03T12:29:58;1.30;;;0.90;;
74465;SDS011;62916;50.044;15.938;2023-04-03T12:32:43;1.50;;;0.70;;
74465;SDS011;62916;50.044;15.938;2023-04-03T12:35:39;2.20;;;0.80;;
74465;SDS011;62916;50.044;15.938;2023-04-03T12:38:22;0.90;;;0.50;;
74465;SDS011;62916;50.044;15.938;2023-04-03T12:41:10;1.20;;;0.60;;
74465;SDS011;62916;50.044;15.938;2023-04-03T12:44:06;1.40;;;0.80;;
74465;SDS011;62916;50.044;15.938;2023-04-03T12:46:55;1.50;;;1.10;;
74465;SDS011;62916;50.044;15.938;2023-04-03T12:49:48;1.20;;;0.80;;
74465;SDS011;62916;50.044;15.938;2023-04-03T12:52:23;1.10;;;0.70;;
74465;SDS011;62916;50.044;15.938;2023-04-03T12:55:01;1.20;;;1.00;;
74465;SDS011;62916;50.044;15.938;2023-04-03T12:57:37;1.70;;;0.90;;
74465;SDS011;62916;50.044;15.938;2023-04-03T13:03:02;1.30;;;0.70;;
74465;SDS011;62916;50.044;15.938;2023-04-03T13:05:35;2.00;;;1.10;;
74465;SDS011;62916;50.044;15.938;2023-04-03T13:08:10;0.90;;;0.50;;
74465;SDS011;62916;50.044;15.938;2023-04-03T13:10:45;1.40;;;0.90;;
74465;SDS011;62916;50.044;15.938;2023-04-03T13:13:21;1.60;;;0.80;;
74465;SDS011;62916;50.044;15.938;2023-04-03T13:15:54;1.70;;;0.70;;
74465;SDS011;62916;50.044;15.938;2023-04-03T13:18:27;1.50;;;0.70;;
74465;SDS011;62916;50.044;15.938;2023-04-03T13:21:01;0.90;;;0.70;;
74465;SDS011;62916;50.044;15.938;2023-04-03T13:23:36;1.00;;;0.60;;
74465;SDS011;62916;50.044;15.938;2023-04-03T13:26:12;1.40;;;0.70;;
74465;SDS011;62916;50.044;15.938;2023-04-03T13:28:44;1.00;;;0.80;;
74465;SDS011;62916;50.044;15.938;2023-04-03T13:31:22;1.30;;;0.70;;
74465;SDS011;62916;50.044;15.938;2023-04-03T13:33:58;1.40;;;1.20;;
74465;SDS011;62916;50.044;15.938;2023-04-03T13:36:35;1.80;;;1.00;;
74465;SDS011;62916;50.044;15.938;2023-04-03T13:39:20;1.70;;;1.00;;
74465;SDS011;62916;50.044;15.938;2023-04-03T13:41:54;2.30;;;0.70;;
74465;SDS011;62916;50.044;15.938;2023-04-03T13:44:28;1.60;;;0.80;;
74465;SDS011;62916;50.044;15.938;2023-04-03T13:47:16;1.90;;;0.80;;
74465;SDS011;62916;50.044;15.938;2023-04-03T13:50:00;0.90;;;0.70;;
74465;SDS011;62916;50.044;15.938;2023-04-03T13:52:53;2.00;;;0.80;;
74465;SDS011;62916;50.044;15.938;2023-04-03T13:55:30;1.30;;;0.70;;
74465;SDS011;62916;50.044;15.938;2023-04-03T13:58:19;1.10;;;0.60;;
74465;SDS011;62916;50.044;15.938;2023-04-03T14:00:54;1.20;;;0.80;;
74465;SDS011;62916;50.044;15.938;2023-04-03T14:03:30;1.00;;;0.70;;
74465;SDS011;62916;50.044;15.938;2023-04-03T14:06:07;1.60;;;0.60;;
74465;SDS011;62916;50.044;15.938;2023-04-03T14:08:40;0.90;;;0.60;;
74465;SDS011;62916;50.044;15.938;2023-04-03T14:11:14;1.10;;;0.50;;
74465;SDS011;62916;50.044;15.938;2023-04-03T14:13:46;1.10;;;0.70;;
74465;SDS011;62916;50.044;15.938;2023-04-03T14:16:20;3.20;;;1.00;;
74465;SDS011;62916;50.044;15.938;2023-04-03T14:18:55;9.20;;;1.20;;
74465;SDS011;62916;50.044;15.938;2023-04-03T14:21:26;8.90;;;1.90;;
74465;SDS011;62916;50.044;15.938;2023-04-03T14:23:58;5.90;;;1.80;;
74465;SDS011;62916;50.044;15.938;2023-04-03T14:26:29;5.00;;;1.80;;
74465;SDS011;62916;50.044;15.938;2023-04-03T14:29:00;8.00;;;1.30;;
74465;SDS011;62916;50.044;15.938;2023-04-03T14:31:32;7.70;;;1.50;;
74465;SDS011;62916;50.044;15.938;2023-04-03T14:34:03;5.00;;;1.40;;
74465;SDS011;62916;50.044;15.938;2023-04-03T14:36:34;5.10;;;1.40;;
74465;SDS011;62916;50.044;15.938;2023-04-03T14:39:06;7.60;;;1.90;;
74465;SDS011;62916;50.044;15.938;2023-04-03T14:44:09;5.00;;;1.60;;
74465;SDS011;62916;50.044;15.938;2023-04-03T14:46:43;5.80;;;1.20;;
74465;SDS011;62916;50.044;15.938;2023-04-03T14:49:25;3.20;;;1.60;;
74465;SDS011;62916;50.044;15.938;2023-04-03T14:51:57;4.80;;;1.60;;
74465;SDS011;62916;50.044;15.938;2023-04-03T14:54:29;5.80;;;1.10;;
74465;SDS011;62916;50.044;15.938;2023-04-03T14:57:00;3.40;;;1.00;;
74465;SDS011;62916;50.044;15.938;2023-04-03T14:59:38;3.70;;;0.80;;
74465;SDS011;62916;50.044;15.938;2023-04-03T15:02:20;3.50;;;1.00;;
74465;SDS011;62916;50.044;15.938;2023-04-03T15:04:57;3.90;;;1.80;;
74465;SDS011;62916;50.044;15.938;2023-04-03T15:07:31;3.20;;;1.00;;
74465;SDS011;62916;50.044;15.938;2023-04-03T15:10:09;3.20;;;1.00;;
74465;SDS011;62916;50.044;15.938;2023-04-03T15:12:46;3.30;;;0.90;;
74465;SDS011;62916;50.044;15.938;2023-04-03T15:15:19;4.70;;;1.10;;
74465;SDS011;62916;50.044;15.938;2023-04-03T15:17:52;2.80;;;1.00;;
74465;SDS011;62916;50.044;15.938;2023-04-03T15:20:26;5.70;;;2.00;;
74465;SDS011;62916;50.044;15.938;2023-04-03T15:23:01;2.20;;;0.90;;
74465;SDS011;62916;50.044;15.938;2023-04-03T15:25:32;2.40;;;0.90;;
74465;SDS011;62916;50.044;15.938;2023-04-03T15:28:04;2.20;;;1.00;;
74465;SDS011;62916;50.044;15.938;2023-04-03T15:30:38;3.80;;;0.90;;
74465;SDS011;62916;50.044;15.938;2023-04-03T15:33:10;3.40;;;1.00;;
74465;SDS011;62916;50.044;15.938;2023-04-03T15:35:43;4.30;;;1.20;;
74465;SDS011;62916;50.044;15.938;2023-04-03T15:38:15;8.50;;;1.10;;
74465;SDS011;62916;50.044;15.938;2023-04-03T15:40:47;2.00;;;0.70;;
74465;SDS011;62916;50.044;15.938;2023-04-03T15:43:18;2.80;;;1.50;;